Time;durP1;ratioP1;P1;durP2;ratioP2;P2;SDS_P1;SDS_P2;PMS_P1;PMS_P2;Temp;Humidity;BMP_temperature;BMP_pressure;BME280_temperature;BME280_humidity;BME280_pressure;Samples;Min_cycle;Max_cycle;Signal;HPM_P1;HPM_P2
2022/09/24 00:01:17;;;;;;;79.10;69.82;;;13.30;99.90;;;;;;5056879;28;20117;-51
2022/09/24 00:03:49;;;;;;;82.55;71.25;;;13.30;99.90;;;;;;5061944;28;20494;-52
2022/09/24 00:06:18;;;;;;;80.03;71.25;;;13.20;99.90;;;;;;5056149;28;20056;-54
2022/09/24 00:08:47;;;;;;;83.82;74.70;;;13.20;99.90;;;;;;5057701;28;20411;-48
2022/09/24 00:11:15;;;;;;;88.88;74.78;;;13.20;99.90;;;;;;5059351;28;20049;-49
2022/09/24 00:13:41;;;;;;;84.18;74.97;;;13.30;99.90;;;;;;5053736;28;20681;-50
2022/09/24 00:16:15;;;;;;;81.85;73.05;;;13.20;99.90;;;;;;5058075;28;20579;-53
2022/09/24 00:18:42;;;;;;;89.28;75.30;;;13.30;99.90;;;;;;5054979;28;20041;-51
2022/09/24 00:21:22;;;;;;;86.53;77.05;;;13.30;99.90;;;;;;5056758;28;20136;-51
2022/09/24 00:23:50;;;;;;;84.85;75.10;;;13.30;99.90;;;;;;5053409;28;20078;-51
2022/09/24 00:27:17;;;;;;;86.65;76.80;;;13.30;99.90;;;;;;5058593;28;20044;-53
2022/09/24 00:29:21;;;;;;;87.90;77.35;;;13.40;99.90;;;;;;5043134;28;20056;-52
2022/09/24 00:31:49;;;;;;;93.95;81.10;;;13.40;99.90;;;;;;5045319;28;20503;-52
2022/09/24 00:34:16;;;;;;;91.03;79.07;;;13.40;99.90;;;;;;5045336;28;20136;-49
2022/09/24 00:36:43;;;;;;;88.05;78.35;;;13.30;99.90;;;;;;5046596;28;20057;-50
2022/09/24 00:39:10;;;;;;;93.05;79.45;;;13.40;99.90;;;;;;5047761;28;20122;-48
2022/09/24 00:41:37;;;;;;;92.78;82.20;;;13.40;99.90;;;;;;5059155;28;20080;-51
2022/09/24 00:44:38;;;;;;;89.05;79.38;;;13.40;99.90;;;;;;5051614;28;20504;-50
2022/09/24 00:47:04;;;;;;;90.43;80.55;;;13.40;99.90;;;;;;5047981;28;20514;-51
2022/09/24 00:49:30;;;;;;;93.50;80.25;;;13.50;99.90;;;;;;5033092;28;20060;-50
2022/09/24 00:51:56;;;;;;;86.93;75.57;;;13.40;99.90;;;;;;5053635;28;20495;-51
2022/09/24 00:54:27;;;;;;;88.38;78.30;;;13.40;99.90;;;;;;5060988;28;20048;-52
2022/09/24 00:56:54;;;;;;;90.63;77.43;;;13.40;99.90;;;;;;5051134;28;20041;-51
2022/09/24 00:59:22;;;;;;;85.80;76.68;;;13.50;99.90;;;;;;5030257;28;20380;-54
2022/09/24 01:01:52;;;;;;;89.43;79.72;;;13.40;99.90;;;;;;5054045;28;20060;-50
2022/09/24 01:04:20;;;;;;;89.75;79.40;;;13.40;99.90;;;;;;5031526;28;20198;-51
2022/09/24 01:06:48;;;;;;;88.72;77.65;;;13.50;99.90;;;;;;5059809;28;20111;-48
2022/09/24 01:09:15;;;;;;;86.75;75.00;;;13.50;99.90;;;;;;5054050;28;20497;-53
2022/09/24 01:11:59;;;;;;;87.60;75.47;;;13.50;99.90;;;;;;5035198;28;20415;-54
2022/09/24 01:15:01;;;;;;;87.25;71.97;;;13.40;99.90;;;;;;5056325;28;20067;-53
2022/09/24 01:17:40;;;;;;;83.68;72.15;;;13.50;99.90;;;;;;5035905;28;20479;-48
2022/09/24 01:20:41;;;;;;;81.18;72.43;;;13.40;99.90;;;;;;5038420;28;20059;-50
2022/09/24 01:23:40;;;;;;;80.47;70.07;;;13.50;99.90;;;;;;5060861;28;20052;-53
2022/09/24 01:26:22;;;;;;;77.53;69.07;;;13.50;99.90;;;;;;5056200;28;20065;-48
2022/09/24 01:29:22;;;;;;;78.83;68.23;;;13.40;99.90;;;;;;5048035;28;20410;-50
2022/09/24 01:31:56;;;;;;;78.65;68.85;;;13.40;99.90;;;;;;5060671;28;20052;-48
2022/09/24 01:34:28;;;;;;;78.00;67.65;;;13.40;99.90;;;;;;5054898;28;20045;-48
2022/09/24 01:36:58;;;;;;;76.18;67.80;;;13.40;99.90;;;;;;5060586;28;20048;-51
2022/09/24 01:39:26;;;;;;;73.93;65.68;;;13.40;99.90;;;;;;5041155;28;20053;-48
2022/09/24 01:41:53;;;;;;;79.95;67.07;;;13.30;99.90;;;;;;5059313;28;20056;-50
2022/09/24 01:44:19;;;;;;;76.95;63.53;;;13.30;99.90;;;;;;5047856;28;20883;-50
2022/09/24 01:46:45;;;;;;;71.03;61.97;;;13.30;99.90;;;;;;5051584;28;20061;-49
2022/09/24 01:49:11;;;;;;;70.43;61.42;;;13.30;99.90;;;;;;5053986;28;20056;-49
2022/09/24 01:51:43;;;;;;;70.30;60.72;;;13.30;99.90;;;;;;5051378;28;20048;-52
2022/09/24 01:54:27;;;;;;;68.47;59.53;;;13.40;99.90;;;;;;5052902;28;20110;-50
2022/09/24 01:57:13;;;;;;;75.32;58.70;;;13.30;99.90;;;;;;5049630;28;20503;-49
2022/09/24 01:59:54;;;;;;;67.30;56.90;;;13.40;99.90;;;;;;5047970;28;20048;-50
2022/09/24 02:02:44;;;;;;;66.30;54.72;;;13.30;99.90;;;;;;5057349;28;20071;-51
2022/09/24 02:05:13;;;;;;;67.68;55.55;;;13.30;99.90;;;;;;5061366;28;20384;-49
2022/09/24 02:07:49;;;;;;;63.88;55.17;;;13.20;99.90;;;;;;5060771;28;20053;-50
2022/09/24 02:10:17;;;;;;;65.28;55.45;;;13.30;99.90;;;;;;5060869;28;20098;-52
2022/09/24 02:12:49;;;;;;;61.45;53.95;;;13.30;99.90;;;;;;5060345;28;20092;-52
2022/09/24 02:15:31;;;;;;;64.28;53.50;;;13.30;99.90;;;;;;5061051;28;20074;-47
2022/09/24 02:18:02;;;;;;;65.70;57.00;;;13.20;99.90;;;;;;5055874;28;20080;-50
2022/09/24 02:20:29;;;;;;;69.88;59.58;;;13.20;99.90;;;;;;5050581;28;20462;-50
2022/09/24 02:22:56;;;;;;;74.78;60.75;;;13.30;99.90;;;;;;5060151;28;20066;-49
2022/09/24 02:25:49;;;;;;;67.22;57.13;;;13.20;99.90;;;;;;5055707;28;20128;-54
2022/09/24 02:28:17;;;;;;;78.60;63.60;;;13.20;99.90;;;;;;5042591;28;20057;-50
2022/09/24 02:30:49;;;;;;;75.68;61.47;;;13.20;99.90;;;;;;5059019;28;20048;-52
2022/09/24 02:36:06;;;;;;;81.82;67.93;;;13.30;99.90;;;;;;5042912;28;20057;-53
2022/09/24 02:38:32;;;;;;;82.72;68.38;;;13.20;99.90;;;;;;5064649;28;20045;-52
2022/09/24 02:40:58;;;;;;;88.75;73.57;;;13.20;99.90;;;;;;5073351;28;20059;-51
2022/09/24 02:43:25;;;;;;;85.28;71.03;;;13.20;99.90;;;;;;5049154;28;20060;-47
2022/09/24 02:45:51;;;;;;;82.72;70.82;;;13.20;99.90;;;;;;5060763;28;20044;-48
2022/09/24 02:48:17;;;;;;;82.82;69.80;;;13.20;99.90;;;;;;5060381;28;20055;-52
2022/09/24 02:50:42;;;;;;;82.40;69.55;;;13.30;99.90;;;;;;5054155;28;20040;-49
2022/09/24 02:53:08;;;;;;;84.72;69.65;;;13.20;99.90;;;;;;5048042;28;20127;-48
2022/09/24 02:55:34;;;;;;;85.32;68.57;;;13.20;99.90;;;;;;5048485;28;20052;-50
2022/09/24 02:58:01;;;;;;;80.50;68.65;;;13.30;99.90;;;;;;5077148;28;20055;-48
2022/09/24 03:00:27;;;;;;;80.18;68.03;;;13.30;99.90;;;;;;5063342;28;20443;-52
2022/09/24 03:02:53;;;;;;;77.15;66.25;;;13.30;99.90;;;;;;5052765;28;20131;-53
2022/09/24 03:05:20;;;;;;;76.30;64.78;;;13.40;99.90;;;;;;5064701;28;20135;-51
2022/09/24 03:07:46;;;;;;;70.03;61.80;;;13.30;99.90;;;;;;5075158;28;20058;-47
2022/09/24 03:10:12;;;;;;;70.72;60.72;;;13.30;99.90;;;;;;5063666;28;20048;-48
2022/09/24 03:12:41;;;;;;;68.68;60.92;;;13.30;99.90;;;;;;5058644;28;20572;-51
2022/09/24 03:15:07;;;;;;;67.80;58.60;;;13.30;99.90;;;;;;5070362;28;20565;-50
2022/09/24 03:17:33;;;;;;;67.50;58.33;;;13.30;99.90;;;;;;5071573;28;20036;-50
2022/09/24 03:19:59;;;;;;;65.07;56.50;;;13.30;99.90;;;;;;5058424;28;20168;-50
2022/09/24 03:22:26;;;;;;;65.90;55.92;;;13.30;99.90;;;;;;5064854;28;20078;-49
2022/09/24 03:24:52;;;;;;;62.72;53.47;;;13.40;99.90;;;;;;5083989;28;20110;-50
2022/09/24 03:27:19;;;;;;;58.35;50.75;;;13.40;99.90;;;;;;5077418;28;20065;-50
2022/09/24 03:32:32;;;;;;;61.72;52.00;;;13.40;99.90;;;;;;5075228;28;20161;-50
2022/09/24 03:35:00;;;;;;;63.20;52.20;;;13.50;99.90;;;;;;5075191;28;20063;-53
2022/09/24 03:37:26;;;;;;;73.63;56.85;;;13.40;99.90;;;;;;5060710;28;20055;-49
2022/09/24 03:39:52;;;;;;;68.88;56.67;;;13.40;99.90;;;;;;5079197;28;20056;-53
2022/09/24 03:42:18;;;;;;;69.50;56.20;;;13.40;99.90;;;;;;5071541;28;20150;-51
2022/09/24 03:44:44;;;;;;;76.25;58.30;;;13.40;99.90;;;;;;5082373;28;20162;-54
2022/09/24 03:47:11;;;;;;;81.18;60.97;;;13.40;99.90;;;;;;5070630;28;20048;-50
2022/09/24 03:49:37;;;;;;;87.60;63.53;;;13.40;99.90;;;;;;5080655;28;20043;-54
2022/09/24 03:52:03;;;;;;;105.70;66.10;;;13.30;99.90;;;;;;5049072;28;20048;-52
2022/09/24 03:54:29;;;;;;;111.95;69.57;;;13.30;99.90;;;;;;5051395;28;20082;-49
2022/09/24 03:56:54;;;;;;;108.22;67.82;;;13.20;99.90;;;;;;5080545;28;20595;-51
2022/09/24 03:59:20;;;;;;;100.72;65.50;;;13.30;99.90;;;;;;5082544;28;20146;-48
2022/09/24 04:01:46;;;;;;;118.57;68.75;;;13.20;99.90;;;;;;5070255;28;20083;-49
2022/09/24 04:04:15;;;;;;;99.45;66.50;;;13.20;99.90;;;;;;5053560;28;20064;-46
2022/09/24 04:06:41;;;;;;;105.38;66.32;;;13.20;99.90;;;;;;5058487;28;20106;-49
2022/09/24 04:09:13;;;;;;;108.28;68.28;;;13.20;99.90;;;;;;5070040;28;20072;-51
2022/09/24 04:11:39;;;;;;;100.95;66.78;;;13.20;99.90;;;;;;5074424;28;20079;-49
2022/09/24 04:14:05;;;;;;;114.22;67.40;;;13.20;99.90;;;;;;5073827;28;20127;-47
2022/09/24 04:16:31;;;;;;;102.82;62.47;;;13.30;99.90;;;;;;5083045;28;20518;-50
2022/09/24 04:18:57;;;;;;;100.95;59.15;;;13.20;99.90;;;;;;5074996;28;20044;-49
2022/09/24 04:21:23;;;;;;;112.13;60.55;;;13.20;99.90;;;;;;5051922;28;20044;-48
2022/09/24 04:23:49;;;;;;;112.47;62.83;;;13.20;99.90;;;;;;5052977;28;20076;-50
2022/09/24 04:26:16;;;;;;;62.45;47.47;;;13.20;99.90;;;;;;5081857;28;20052;-51
2022/09/24 04:28:41;;;;;;;77.50;52.08;;;13.20;99.90;;;;;;5082380;28;20109;-51
2022/09/24 04:31:08;;;;;;;173.60;53.95;;;13.20;99.90;;;;;;5057197;28;20056;-49
2022/09/24 04:33:34;;;;;;;66.72;46.58;;;13.20;99.90;;;;;;5075033;28;20040;-50
2022/09/24 04:35:59;;;;;;;69.97;50.83;;;13.20;99.90;;;;;;5075083;28;20094;-54
2022/09/24 04:38:25;;;;;;;81.38;49.42;;;13.10;99.90;;;;;;5072633;28;20136;-54
2022/09/24 04:40:52;;;;;;;68.68;48.00;;;13.20;99.90;;;;;;5073112;28;20067;-52
2022/09/24 04:43:17;;;;;;;66.82;45.95;;;13.20;99.90;;;;;;5078963;28;20062;-49
2022/09/24 04:45:44;;;;;;;55.25;44.25;;;13.20;99.90;;;;;;5078545;28;20381;-53
2022/09/24 04:48:11;;;;;;;57.13;41.95;;;13.20;99.90;;;;;;5082473;28;20048;-51
2022/09/24 04:50:37;;;;;;;42.38;33.47;;;13.20;99.90;;;;;;5074881;28;20044;-54
2022/09/24 04:53:08;;;;;;;47.90;34.60;;;13.30;99.90;;;;;;5071136;28;20184;-51
2022/09/24 04:55:35;;;;;;;54.90;36.40;;;13.20;99.90;;;;;;5061703;28;20067;-51
2022/09/24 04:58:02;;;;;;;51.00;32.08;;;13.30;99.90;;;;;;5052734;28;20503;-54
2022/09/24 05:00:30;;;;;;;40.05;27.02;;;13.20;99.90;;;;;;5066504;28;20041;-50
2022/09/24 05:02:58;;;;;;;41.17;27.55;;;13.20;99.90;;;;;;5069933;28;20612;-50
2022/09/24 05:05:25;;;;;;;34.45;23.02;;;13.30;99.90;;;;;;5075441;28;20640;-49
2022/09/24 05:07:51;;;;;;;32.88;19.77;;;13.20;99.90;;;;;;5043183;28;20057;-52
2022/09/24 05:10:18;;;;;;;34.72;19.50;;;13.20;99.90;;;;;;5053242;28;20048;-49
2022/09/24 05:12:44;;;;;;;34.95;19.83;;;13.20;99.90;;;;;;5059083;28;20100;-51
2022/09/24 05:15:11;;;;;;;30.33;17.75;;;13.20;99.90;;;;;;5052881;28;20556;-50
2022/09/24 05:17:38;;;;;;;31.50;18.58;;;13.10;99.90;;;;;;5048908;28;20056;-50
2022/09/24 05:20:06;;;;;;;35.17;17.77;;;13.10;99.90;;;;;;5046545;28;20605;-49
2022/09/24 05:22:33;;;;;;;29.63;16.10;;;13.10;99.90;;;;;;5051935;28;20127;-51
2022/09/24 05:24:59;;;;;;;24.10;11.20;;;13.20;99.90;;;;;;5054077;28;20056;-48
2022/09/24 05:27:25;;;;;;;21.45;11.18;;;13.10;99.90;;;;;;5050983;28;20064;-51
2022/09/24 05:29:50;;;;;;;23.77;10.35;;;13.10;99.90;;;;;;5048952;28;20052;-51
2022/09/24 05:32:19;;;;;;;27.23;9.55;;;13.20;99.90;;;;;;5057185;28;20442;-50
2022/09/24 05:34:46;;;;;;;16.67;7.90;;;13.20;99.90;;;;;;5048493;28;20061;-49
2022/09/24 05:37:12;;;;;;;17.65;6.93;;;13.10;99.90;;;;;;5057101;28;20081;-52
2022/09/24 05:39:38;;;;;;;19.40;4.93;;;13.10;99.90;;;;;;5053026;28;20053;-51
2022/09/24 05:42:05;;;;;;;11.07;4.00;;;13.10;99.90;;;;;;5057275;28;20451;-55
2022/09/24 05:44:31;;;;;;;17.23;5.05;;;13.10;99.90;;;;;;5045762;28;20041;-52
2022/09/24 05:46:58;;;;;;;18.27;3.95;;;13.10;99.90;;;;;;5047212;28;20574;-53
2022/09/24 05:49:24;;;;;;;17.83;3.42;;;13.10;99.90;;;;;;5055944;28;20051;-51
2022/09/24 05:51:50;;;;;;;12.65;4.07;;;13.00;99.90;;;;;;5048258;28;20044;-50
2022/09/24 05:54:18;;;;;;;16.02;3.50;;;13.00;99.90;;;;;;5056546;28;20048;-51
2022/09/24 05:56:44;;;;;;;14.85;3.22;;;13.10;99.90;;;;;;5055242;28;20452;-54
2022/09/24 05:59:11;;;;;;;10.73;2.90;;;13.00;99.90;;;;;;5050864;28;20107;-50
2022/09/24 06:01:38;;;;;;;13.73;3.03;;;13.00;99.90;;;;;;5051575;28;20048;-51
2022/09/24 06:04:04;;;;;;;14.35;3.00;;;13.10;99.90;;;;;;5060332;28;20652;-54
2022/09/24 06:06:29;;;;;;;12.68;2.95;;;13.00;99.90;;;;;;5055256;28;20053;-54
2022/09/24 06:08:56;;;;;;;16.63;3.92;;;13.10;99.90;;;;;;5057007;28;20130;-56
2022/09/24 06:11:22;;;;;;;14.65;4.22;;;12.90;99.90;;;;;;5062117;28;20660;-51
2022/09/24 06:13:50;;;;;;;18.48;3.88;;;13.00;99.90;;;;;;5043162;28;20583;-53
2022/09/24 06:16:16;;;;;;;13.30;3.20;;;13.00;99.90;;;;;;5056054;28;20074;-55
2022/09/24 06:18:43;;;;;;;10.98;3.42;;;12.90;99.90;;;;;;5051149;28;20045;-51
2022/09/24 06:21:16;;;;;;;10.55;3.20;;;13.00;99.90;;;;;;5057542;28;20874;-54
2022/09/24 06:23:44;;;;;;;14.75;2.83;;;13.00;99.90;;;;;;5053594;28;20056;-50
2022/09/24 06:26:16;;;;;;;16.25;3.30;;;13.10;99.90;;;;;;5034021;28;20059;-51
2022/09/24 06:28:41;;;;;;;13.80;2.70;;;13.00;99.90;;;;;;5053650;28;20051;-52
2022/09/24 06:31:09;;;;;;;16.55;3.10;;;13.10;99.90;;;;;;5024737;28;20057;-51
2022/09/24 06:33:36;;;;;;;11.85;3.35;;;13.00;99.90;;;;;;5057390;28;20080;-50
2022/09/24 06:36:03;;;;;;;11.68;2.95;;;13.10;99.90;;;;;;5056557;28;20110;-52
2022/09/24 06:38:30;;;;;;;7.95;2.47;;;13.20;99.90;;;;;;5064172;28;20063;-50
2022/09/24 06:41:05;;;;;;;8.80;2.50;;;13.20;99.90;;;;;;5056903;28;20048;-52
2022/09/24 06:43:32;;;;;;;8.52;2.25;;;13.20;99.90;;;;;;5060381;28;20050;-51
2022/09/24 06:46:02;;;;;;;9.85;2.40;;;13.30;99.90;;;;;;5032868;28;20079;-53
2022/09/24 06:48:30;;;;;;;14.10;2.90;;;13.30;99.90;;;;;;5034228;28;20060;-52
2022/09/24 06:50:56;;;;;;;11.43;3.47;;;13.30;99.90;;;;;;5057406;28;20083;-51
2022/09/24 06:53:22;;;;;;;12.05;3.28;;;13.40;99.90;;;;;;5053812;28;20044;-50
2022/09/24 06:55:48;;;;;;;10.48;3.10;;;13.40;99.90;;;;;;5056678;28;20090;-51
2022/09/24 06:58:19;;;;;;;13.30;2.85;;;13.50;99.90;;;;;;5056186;28;20040;-52
2022/09/24 07:00:57;;;;;;;11.25;2.63;;;13.50;99.90;;;;;;5044692;28;20076;-54
2022/09/24 07:03:25;;;;;;;10.00;2.40;;;13.50;99.90;;;;;;5038864;28;20045;-57
2022/09/24 07:05:51;;;;;;;10.85;2.55;;;13.60;99.90;;;;;;5059744;28;20076;-53
2022/09/24 07:08:17;;;;;;;9.27;2.20;;;13.70;99.90;;;;;;5054149;28;20136;-53
2022/09/24 07:10:45;;;;;;;17.73;2.83;;;13.70;99.90;;;;;;5057119;28;20055;-53
2022/09/24 07:13:15;;;;;;;13.95;2.45;;;13.70;99.90;;;;;;5060055;28;20062;-58
2022/09/24 07:15:42;;;;;;;9.88;2.88;;;13.80;99.90;;;;;;5057010;28;20044;-52
2022/09/24 07:18:08;;;;;;;21.98;3.63;;;13.80;99.90;;;;;;5058438;28;20047;-52
2022/09/24 07:20:35;;;;;;;10.38;2.63;;;13.70;99.90;;;;;;5055556;28;20047;-52
2022/09/24 07:23:07;;;;;;;9.57;2.60;;;13.90;99.90;;;;;;5058360;28;20465;-56
2022/09/24 07:25:34;;;;;;;16.55;3.17;;;13.90;99.90;;;;;;5061587;28;20581;-51
2022/09/24 07:28:04;;;;;;;11.50;2.53;;;14.00;99.90;;;;;;5059381;28;20600;-54
2022/09/24 07:30:31;;;;;;;8.40;2.72;;;14.00;99.90;;;;;;5029154;28;20041;-54
2022/09/24 07:32:58;;;;;;;13.18;3.13;;;14.00;99.90;;;;;;5055177;28;20855;-53
2022/09/24 07:35:25;;;;;;;7.60;2.25;;;14.10;99.90;;;;;;5051394;28;20051;-51
2022/09/24 07:38:02;;;;;;;9.00;2.47;;;14.20;99.90;;;;;;5047348;28;20076;-53
2022/09/24 07:40:29;;;;;;;10.80;2.58;;;14.20;99.90;;;;;;5053798;28;20044;-52
2022/09/24 07:42:56;;;;;;;12.20;2.70;;;14.30;99.90;;;;;;5056829;28;20060;-50
2022/09/24 07:45:23;;;;;;;8.40;2.45;;;14.20;99.90;;;;;;5056054;28;20102;-53
2022/09/24 07:48:00;;;;;;;7.97;2.25;;;14.30;99.90;;;;;;5054104;28;20084;-50
2022/09/24 07:50:28;;;;;;;5.70;1.75;;;14.30;99.90;;;;;;5052964;28;20033;-53
2022/09/24 07:52:54;;;;;;;10.65;2.20;;;14.40;99.90;;;;;;5041322;28;20116;-56
2022/09/24 07:55:21;;;;;;;9.45;1.77;;;14.30;99.90;;;;;;5060358;28;20055;-54
2022/09/24 07:57:49;;;;;;;9.55;1.77;;;14.40;99.90;;;;;;5060212;28;20048;-53
2022/09/24 08:00:16;;;;;;;6.60;1.50;;;14.40;99.90;;;;;;5039084;28;20087;-49
2022/09/24 08:02:44;;;;;;;5.43;1.85;;;14.30;99.90;;;;;;5058807;28;20123;-51
2022/09/24 08:05:11;;;;;;;8.82;1.88;;;14.50;99.90;;;;;;5039241;28;20403;-52
2022/09/24 08:07:37;;;;;;;8.68;2.17;;;14.50;99.90;;;;;;5060886;28;20048;-54
2022/09/24 08:10:04;;;;;;;4.15;1.55;;;14.40;99.90;;;;;;5067098;28;20063;-50
2022/09/24 08:12:30;;;;;;;6.63;2.10;;;14.50;99.90;;;;;;5079882;28;20458;-49
2022/09/24 08:14:56;;;;;;;10.18;2.20;;;14.60;99.90;;;;;;5081867;28;20127;-53
2022/09/24 08:17:22;;;;;;;8.52;1.55;;;14.60;99.90;;;;;;5069362;28;20044;-52
2022/09/24 08:19:48;;;;;;;7.32;1.80;;;14.70;99.90;;;;;;5055714;28;20082;-56
2022/09/24 08:22:14;;;;;;;6.03;1.67;;;14.80;99.90;;;;;;5076664;28;20056;-54
2022/09/24 08:24:40;;;;;;;8.23;1.50;;;14.80;99.90;;;;;;5074458;28;20078;-54
2022/09/24 08:27:07;;;;;;;5.55;1.60;;;14.90;99.90;;;;;;5079581;28;20897;-53
2022/09/24 08:29:33;;;;;;;6.97;1.75;;;15.00;99.90;;;;;;5074747;28;20078;-55
2022/09/24 08:32:00;;;;;;;7.07;1.50;;;15.00;99.90;;;;;;5081712;28;20083;-56
2022/09/24 08:34:26;;;;;;;10.43;1.92;;;15.00;99.90;;;;;;5056149;28;20071;-55
2022/09/24 08:36:52;;;;;;;6.18;1.65;;;15.10;99.90;;;;;;5073052;28;20048;-54
2022/09/24 08:39:20;;;;;;;4.43;1.48;;;15.00;99.90;;;;;;5062950;28;20036;-51
2022/09/24 08:41:56;;;;;;;9.73;2.03;;;15.00;99.90;;;;;;5082272;28;20566;-53
2022/09/24 08:47:47;;;;;;;10.35;2.33;;;15.10;99.90;;;;;;5069303;28;20140;-53
2022/09/24 08:50:21;;;;;;;11.50;1.55;;;15.20;99.90;;;;;;5069890;28;20613;-52
2022/09/24 08:53:18;;;;;;;4.38;1.50;;;15.30;99.90;;;;;;5080216;28;20062;-52
2022/09/24 08:55:57;;;;;;;7.45;1.83;;;15.40;99.90;;;;;;5067849;28;20053;-50
2022/09/24 08:58:45;;;;;;;7.32;1.92;;;15.50;99.90;;;;;;5082224;28;20091;-53
2022/09/24 09:01:11;;;;;;;10.00;1.63;;;15.60;99.90;;;;;;5063163;28;20067;-53
2022/09/24 09:03:43;;;;;;;9.40;1.60;;;15.70;99.90;;;;;;5056220;28;20048;-53
2022/09/24 09:06:44;;;;;;;9.93;1.73;;;15.70;99.90;;;;;;5071342;28;20055;-50
2022/09/24 09:09:15;;;;;;;8.77;1.90;;;15.80;99.90;;;;;;5044776;28;20508;-52
2022/09/24 09:11:49;;;;;;;8.30;1.77;;;15.80;99.90;;;;;;5043318;28;20077;-52
2022/09/24 09:14:24;;;;;;;7.32;1.60;;;15.70;99.90;;;;;;5043452;28;20079;-53
2022/09/24 09:17:12;;;;;;;9.15;1.70;;;15.80;99.90;;;;;;5060857;28;20095;-54
2022/09/24 09:19:40;;;;;;;7.72;2.42;;;15.80;99.90;;;;;;5040495;28;20094;-53
2022/09/24 09:22:22;;;;;;;13.63;2.03;;;15.70;99.90;;;;;;5019753;28;20060;-54
2022/09/24 09:24:51;;;;;;;9.35;1.75;;;15.70;99.90;;;;;;5055472;28;20067;-53
2022/09/24 09:27:18;;;;;;;11.55;2.00;;;15.60;99.90;;;;;;5060818;28;20202;-53
2022/09/24 09:29:56;;;;;;;8.45;1.92;;;15.40;99.90;;;;;;5038031;28;20055;-52
2022/09/24 09:33:05;;;;;;;13.55;2.78;;;15.20;99.90;;;;;;5028910;28;20562;-53
2022/09/24 09:35:43;;;;;;;11.75;2.88;;;15.00;99.90;;;;;;5053690;28;20060;-52
2022/09/24 09:38:28;;;;;;;17.55;2.63;;;15.00;99.90;;;;;;5050021;28;20189;-51
2022/09/24 09:41:17;;;;;;;9.27;1.95;;;15.10;99.90;;;;;;5050979;28;20056;-55
2022/09/24 09:43:43;;;;;;;10.43;2.03;;;15.20;99.90;;;;;;5047145;28;20056;-55
2022/09/24 09:46:22;;;;;;;15.63;3.83;;;15.40;99.90;;;;;;5049296;28;20052;-53
2022/09/24 09:49:01;;;;;;;14.27;2.60;;;15.40;99.90;;;;;;5024836;28;20080;-56
2022/09/24 09:51:36;;;;;;;10.38;2.10;;;15.40;99.90;;;;;;5041645;28;20051;-53
2022/09/24 09:54:03;;;;;;;9.80;2.00;;;15.40;99.90;;;;;;5042692;28;20045;-54
2022/09/24 09:56:31;;;;;;;9.05;2.20;;;15.40;99.90;;;;;;5041569;28;20109;-50
2022/09/24 09:59:02;;;;;;;9.00;2.55;;;15.30;99.90;;;;;;5040577;28;20060;-57
2022/09/24 10:01:33;;;;;;;6.95;1.80;;;15.40;99.90;;;;;;5048761;28;20056;-52
2022/09/24 10:04:03;;;;;;;10.60;2.08;;;15.50;99.90;;;;;;5030747;28;20493;-52
2022/09/24 10:06:34;;;;;;;10.77;2.80;;;15.60;99.90;;;;;;5052449;28;20115;-51
2022/09/24 10:09:14;;;;;;;9.40;2.95;;;15.70;99.90;;;;;;5054027;28;20059;-52
2022/09/24 10:11:41;;;;;;;15.15;3.17;;;15.90;99.90;;;;;;5056445;28;20060;-50
2022/09/24 10:14:13;;;;;;;8.52;2.00;;;16.00;99.90;;;;;;5055398;28;20059;-53
2022/09/24 10:16:44;;;;;;;13.57;2.30;;;16.00;99.90;;;;;;5048525;28;20040;-51
2022/09/24 10:19:22;;;;;;;9.55;1.95;;;15.80;99.90;;;;;;5054444;28;20780;-54
2022/09/24 10:21:49;;;;;;;8.50;2.00;;;15.70;99.90;;;;;;5063716;28;20109;-51
2022/09/24 10:24:20;;;;;;;7.35;1.85;;;15.70;99.90;;;;;;5057903;28;20048;-51
2022/09/24 10:26:47;;;;;;;9.73;1.67;;;15.50;99.90;;;;;;5045194;28;20056;-51
2022/09/24 10:32:20;;;;;;;9.80;1.80;;;15.60;99.90;;;;;;5061702;28;20048;-53
2022/09/24 10:35:00;;;;;;;12.05;2.38;;;15.50;99.90;;;;;;5064409;28;20048;-51
2022/09/24 10:37:27;;;;;;;7.95;2.17;;;15.30;99.90;;;;;;5057338;28;20048;-55
2022/09/24 10:40:10;;;;;;;12.05;2.20;;;15.20;99.90;;;;;;5063151;28;20139;-53
2022/09/24 10:42:37;;;;;;;9.63;2.45;;;15.20;99.90;;;;;;5063082;28;20140;-53
2022/09/24 10:45:09;;;;;;;9.13;2.17;;;15.40;99.90;;;;;;5044479;28;20510;-55
2022/09/24 10:48:07;;;;;;;8.83;1.93;;;15.40;99.90;;;;;;5058076;28;20119;-56
2022/09/24 10:50:57;;;;;;;19.30;3.58;;;15.60;99.90;;;;;;5033934;28;20472;-52
2022/09/24 10:53:49;;;;;;;10.80;2.70;;;15.70;99.90;;;;;;5060265;28;20102;-54
2022/09/24 10:56:57;;;;;;;8.25;2.05;;;15.80;99.90;;;;;;4958257;28;20150;-53
2022/09/24 10:59:50;;;;;;;10.82;2.65;;;15.90;99.90;;;;;;4979226;28;20505;-56
2022/09/24 11:02:54;;;;;;;13.40;2.38;;;15.70;99.90;;;;;;4980907;28;20054;-58
2022/09/24 11:05:22;;;;;;;11.80;2.67;;;15.60;99.90;;;;;;4953735;28;20510;-52
2022/09/24 11:08:11;;;;;;;8.45;1.83;;;15.60;99.90;;;;;;4973430;28;20089;-51
2022/09/24 11:11:03;;;;;;;11.13;2.20;;;15.60;99.90;;;;;;4994111;28;20123;-52
2022/09/24 11:13:41;;;;;;;8.98;1.70;;;15.80;99.90;;;;;;4981498;28;20062;-53
2022/09/24 11:16:10;;;;;;;9.80;1.85;;;16.00;99.90;;;;;;4996706;28;20524;-54
2022/09/24 11:18:55;;;;;;;7.80;1.90;;;16.00;99.90;;;;;;5000755;28;20081;-53
2022/09/24 11:21:40;;;;;;;8.85;2.22;;;16.00;99.90;;;;;;4988071;28;20069;-53
2022/09/24 11:24:36;;;;;;;12.63;1.90;;;16.10;99.90;;;;;;4977975;28;20053;-56
2022/09/24 11:27:08;;;;;;;9.57;1.67;;;16.20;99.90;;;;;;4995286;28;20054;-51
2022/09/24 11:30:06;;;;;;;8.68;1.92;;;16.20;99.90;;;;;;4988404;28;20656;-50
2022/09/24 11:32:55;;;;;;;8.55;2.20;;;16.30;99.90;;;;;;4924634;29;20733;-50
2022/09/24 11:35:38;;;;;;;9.63;2.78;;;16.20;99.90;;;;;;4955488;28;20825;-53
2022/09/24 11:38:23;;;;;;;;;;;16.10;99.90;;;;;;4953349;28;20058;-52
2022/09/24 11:40:58;;;;;;;9.13;2.10;;;16.10;99.90;;;;;;4954639;28;20416;-52
2022/09/24 11:43:52;;;;;;;7.95;1.77;;;16.00;99.90;;;;;;4966036;28;20058;-51
2022/09/24 11:47:00;;;;;;;7.43;2.00;;;15.80;99.90;;;;;;4958421;28;20580;-51
2022/09/24 11:49:54;;;;;;;10.50;2.25;;;15.90;99.90;;;;;;4941605;28;20063;-53
2022/09/24 11:52:42;;;;;;;15.52;2.55;;;15.90;99.90;;;;;;4946230;28;20051;-55
2022/09/24 11:55:22;;;;;;;9.32;2.15;;;16.00;99.90;;;;;;4945766;28;20528;-52
2022/09/24 11:58:09;;;;;;;8.07;2.05;;;15.90;99.90;;;;;;4947042;28;20579;-52
2022/09/24 12:00:48;;;;;;;10.60;2.03;;;15.80;99.90;;;;;;4948098;28;20078;-53
2022/09/24 12:03:22;;;;;;;11.07;2.58;;;15.60;99.90;;;;;;4961285;28;20059;-51
2022/09/24 12:06:05;;;;;;;12.88;2.03;;;15.70;99.90;;;;;;4944575;28;20414;-53
2022/09/24 12:08:42;;;;;;;8.82;2.00;;;15.60;99.90;;;;;;4955539;28;20059;-50
2022/09/24 12:11:21;;;;;;;11.60;2.30;;;15.60;99.90;;;;;;4960627;28;20055;-52
2022/09/24 12:14:39;;;;;;;13.88;2.30;;;15.60;99.90;;;;;;4963679;28;20071;-54
2022/09/24 12:17:10;;;;;;;8.50;1.85;;;15.50;99.90;;;;;;4959883;28;20120;-54
2022/09/24 12:19:56;;;;;;;11.60;2.78;;;15.40;99.90;;;;;;4960562;28;20074;-56
2022/09/24 12:22:25;;;;;;;6.78;2.10;;;15.50;99.90;;;;;;4955277;28;20089;-53
2022/09/24 12:24:53;;;;;;;9.35;2.40;;;15.40;99.90;;;;;;4960826;28;20058;-51
2022/09/24 12:27:27;;;;;;;9.02;2.20;;;15.40;99.90;;;;;;4965782;28;20075;-50
2022/09/24 12:33:17;;;;;;;7.10;1.85;;;15.30;99.90;;;;;;4960958;28;20061;-50
2022/09/24 12:36:26;;;;;;;8.98;2.40;;;15.30;99.90;;;;;;4961979;28;20145;-52
2022/09/24 12:39:02;;;;;;;13.40;2.30;;;15.20;99.90;;;;;;4921670;29;20419;-54
2022/09/24 12:41:32;;;;;;;7.65;1.67;;;15.20;99.90;;;;;;4916124;29;20142;-53
2022/09/24 12:44:02;;;;;;;9.52;2.50;;;15.10;99.90;;;;;;4922331;29;20066;-50
2022/09/24 12:46:31;;;;;;;7.28;1.90;;;15.20;99.90;;;;;;4921742;29;20067;-52
2022/09/24 12:48:59;;;;;;;7.57;2.10;;;15.20;99.90;;;;;;4921663;29;20051;-50
2022/09/24 12:51:34;;;;;;;7.35;1.60;;;15.30;99.90;;;;;;4915577;29;20407;-53
2022/09/24 12:54:36;;;;;;;9.60;2.40;;;15.40;99.90;;;;;;5010385;28;20053;-52
2022/09/24 12:57:22;;;;;;;9.35;2.00;;;15.50;99.90;;;;;;5007218;28;20068;-52
2022/09/24 12:59:59;;;;;;;10.25;2.08;;;15.60;99.90;;;;;;5004784;28;20059;-51
2022/09/24 13:02:30;;;;;;;9.13;1.67;;;15.70;99.90;;;;;;5007010;28;20145;-52
2022/09/24 13:05:02;;;;;;;8.65;2.35;;;15.90;99.90;;;;;;5014436;28;20504;-51
2022/09/24 13:07:32;;;;;;;4.32;1.65;;;16.00;99.90;;;;;;5008338;28;20502;-53
2022/09/24 13:10:22;;;;;;;6.70;2.05;;;16.10;99.90;;;;;;5013453;28;20064;-53
2022/09/24 13:12:49;;;;;;;7.70;2.25;;;16.30;99.90;;;;;;5003218;28;20050;-58
2022/09/24 13:15:24;;;;;;;12.80;2.70;;;16.40;99.90;;;;;;5027844;28;20482;-53
2022/09/24 13:18:18;;;;;;;8.90;1.85;;;16.30;99.90;;;;;;5061339;28;20056;-54